sensor_id;sensor_type;location;lat;lon;timestamp;pressure;altitude;pressure_sealevel;temperature;humidity
73267;BME280;61495;53.400;7.608;2022-07-22T00:01:03;101924.91;;;17.34;73.87
73267;BME280;61495;53.400;7.608;2022-07-22T00:03:28;101921.59;;;17.32;74.20
73267;BME280;61495;53.400;7.608;2022-07-22T00:05:53;101927.00;;;17.32;74.10
73267;BME280;61495;53.400;7.608;2022-07-22T00:08:19;101925.19;;;17.26;73.70
73267;BME280;61495;53.400;7.608;2022-07-22T00:10:45;101928.06;;;17.31;73.71
73267;BME280;61495;53.400;7.608;2022-07-22T00:13:10;101929.34;;;17.28;73.23
73267;BME280;61495;53.400;7.608;2022-07-22T00:15:35;101918.19;;;17.18;74.01
73267;BME280;61495;53.400;7.608;2022-07-22T00:18:01;101914.50;;;17.12;73.69
73267;BME280;61495;53.400;7.608;2022-07-22T00:20:26;101931.69;;;17.25;73.04
73267;BME280;61495;53.400;7.608;2022-07-22T00:22:51;101939.19;;;17.22;73.71
73267;BME280;61495;53.400;7.608;2022-07-22T00:25:17;101945.81;;;17.27;73.47
73267;BME280;61495;53.400;7.608;2022-07-22T00:27:42;101949.56;;;17.26;74.10
73267;BME280;61495;53.400;7.608;2022-07-22T00:30:08;101951.69;;;17.23;73.84
73267;BME280;61495;53.400;7.608;2022-07-22T00:32:34;101932.63;;;17.12;74.30
73267;BME280;61495;53.400;7.608;2022-07-22T00:34:59;101919.75;;;17.07;73.67
73267;BME280;61495;53.400;7.608;2022-07-22T00:37:24;101941.34;;;17.14;73.89
73267;BME280;61495;53.400;7.608;2022-07-22T00:39:50;101942.19;;;17.14;73.87
73267;BME280;61495;53.400;7.608;2022-07-22T00:42:15;101925.00;;;17.02;74.16
73267;BME280;61495;53.400;7.608;2022-07-22T00:44:40;101940.28;;;16.97;74.84
73267;BME280;61495;53.400;7.608;2022-07-22T00:47:06;101915.81;;;16.85;75.05
73267;BME280;61495;53.400;7.608;2022-07-22T00:49:31;101921.16;;;16.92;74.90
73267;BME280;61495;53.400;7.608;2022-07-22T00:51:57;101913.25;;;16.90;74.05
73267;BME280;61495;53.400;7.608;2022-07-22T00:54:22;101924.47;;;16.94;74.08
73267;BME280;61495;53.400;7.608;2022-07-22T00:56:48;101923.63;;;16.93;74.16
73267;BME280;61495;53.400;7.608;2022-07-22T00:59:14;101914.97;;;16.85;75.30
73267;BME280;61495;53.400;7.608;2022-07-22T01:01:39;101927.41;;;16.92;73.50
73267;BME280;61495;53.400;7.608;2022-07-22T01:04:05;101916.25;;;16.82;73.50
73267;BME280;61495;53.400;7.608;2022-07-22T01:06:31;101918.94;;;16.82;74.04
73267;BME280;61495;53.400;7.608;2022-07-22T01:08:57;101931.38;;;16.90;74.03
73267;BME280;61495;53.400;7.608;2022-07-22T01:11:22;101943.66;;;16.92;74.16
73267;BME280;61495;53.400;7.608;2022-07-22T01:13:48;101934.75;;;16.85;73.63
73267;BME280;61495;53.400;7.608;2022-07-22T01:16:16;101946.56;;;16.91;74.47
73267;BME280;61495;53.400;7.608;2022-07-22T01:18:42;101939.56;;;16.83;74.59
73267;BME280;61495;53.400;7.608;2022-07-22T01:21:09;101944.53;;;16.86;74.61
73267;BME280;61495;53.400;7.608;2022-07-22T01:23:35;101934.75;;;16.85;73.79
73267;BME280;61495;53.400;7.608;2022-07-22T01:26:01;101943.75;;;16.79;74.27
73267;BME280;61495;53.400;7.608;2022-07-22T01:28:27;101938.78;;;16.76;73.96
73267;BME280;61495;53.400;7.608;2022-07-22T01:30:53;101937.56;;;16.72;74.59
73267;BME280;61495;53.400;7.608;2022-07-22T01:33:19;101947.13;;;16.75;74.11
73267;BME280;61495;53.400;7.608;2022-07-22T01:35:45;101949.22;;;16.73;74.54
73267;BME280;61495;53.400;7.608;2022-07-22T01:38:11;101948.19;;;16.74;75.18
73267;BME280;61495;53.400;7.608;2022-07-22T01:40:38;101945.06;;;16.70;75.27
73267;BME280;61495;53.400;7.608;2022-07-22T01:43:04;101938.66;;;16.64;75.03
73267;BME280;61495;53.400;7.608;2022-07-22T01:45:30;101943.41;;;16.69;75.21
73267;BME280;61495;53.400;7.608;2022-07-22T01:47:55;101941.13;;;16.66;75.49
73267;BME280;61495;53.400;7.608;2022-07-22T01:50:21;101942.22;;;16.65;75.51
73267;BME280;61495;53.400;7.608;2022-07-22T01:52:46;101913.56;;;16.51;75.35
73267;BME280;61495;53.400;7.608;2022-07-22T01:55:12;101943.84;;;16.66;74.68
73267;BME280;61495;53.400;7.608;2022-07-22T01:57:38;101954.22;;;16.69;75.02
73267;BME280;61495;53.400;7.608;2022-07-22T02:00:05;101948.81;;;16.69;74.84
73267;BME280;61495;53.400;7.608;2022-07-22T02:02:32;101921.44;;;16.52;75.29
73267;BME280;61495;53.400;7.608;2022-07-22T02:04:58;101935.56;;;16.61;74.91
73267;BME280;61495;53.400;7.608;2022-07-22T02:07:23;101920.63;;;16.52;74.83
73267;BME280;61495;53.400;7.608;2022-07-22T02:09:51;101927.88;;;16.58;75.32
73267;BME280;61495;53.400;7.608;2022-07-22T02:12:16;101928.31;;;16.55;75.94
73267;BME280;61495;53.400;7.608;2022-07-22T02:14:42;101905.53;;;16.38;75.77
73267;BME280;61495;53.400;7.608;2022-07-22T02:17:07;101934.34;;;16.57;75.85
73267;BME280;61495;53.400;7.608;2022-07-22T02:19:32;101948.06;;;16.62;75.83
73267;BME280;61495;53.400;7.608;2022-07-22T02:21:58;101924.38;;;16.51;75.01
73267;BME280;61495;53.400;7.608;2022-07-22T02:24:23;101929.34;;;16.54;75.06
73267;BME280;61495;53.400;7.608;2022-07-22T02:26:49;101933.31;;;16.58;75.74
73267;BME280;61495;53.400;7.608;2022-07-22T02:29:14;101920.22;;;16.48;75.16
73267;BME280;61495;53.400;7.608;2022-07-22T02:31:39;101927.09;;;16.51;75.23
73267;BME280;61495;53.400;7.608;2022-07-22T02:34:05;101937.69;;;16.52;75.67
73267;BME280;61495;53.400;7.608;2022-07-22T02:36:30;101921.28;;;16.47;75.43
73267;BME280;61495;53.400;7.608;2022-07-22T02:38:55;101924.81;;;16.48;75.21
73267;BME280;61495;53.400;7.608;2022-07-22T02:41:21;101933.53;;;16.56;75.59
73267;BME280;61495;53.400;7.608;2022-07-22T02:43:46;101939.75;;;16.57;76.28
73267;BME280;61495;53.400;7.608;2022-07-22T02:46:12;101938.09;;;16.56;75.26
73267;BME280;61495;53.400;7.608;2022-07-22T02:48:37;101943.09;;;16.59;76.80
73267;BME280;61495;53.400;7.608;2022-07-22T02:51:02;101939.56;;;16.52;75.50
73267;BME280;61495;53.400;7.608;2022-07-22T02:53:28;101926.06;;;16.45;75.36
73267;BME280;61495;53.400;7.608;2022-07-22T02:55:54;101928.97;;;16.50;75.86
73267;BME280;61495;53.400;7.608;2022-07-22T02:58:19;101946.22;;;16.56;75.46
73267;BME280;61495;53.400;7.608;2022-07-22T03:00:44;101924.44;;;16.44;75.80
73267;BME280;61495;53.400;7.608;2022-07-22T03:03:10;101935.22;;;16.51;75.65
73267;BME280;61495;53.400;7.608;2022-07-22T03:05:35;101933.53;;;16.50;75.44
73267;BME280;61495;53.400;7.608;2022-07-22T03:08:01;101947.25;;;16.55;75.80
73267;BME280;61495;53.400;7.608;2022-07-22T03:10:26;101957.06;;;16.56;76.11
73267;BME280;61495;53.400;7.608;2022-07-22T03:12:52;101928.16;;;16.43;75.90
73267;BME280;61495;53.400;7.608;2022-07-22T03:15:18;101939.38;;;16.47;75.46
73267;BME280;61495;53.400;7.608;2022-07-22T03:17:43;101946.25;;;16.49;75.60
73267;BME280;61495;53.400;7.608;2022-07-22T03:20:09;101943.81;;;16.41;75.75
73267;BME280;61495;53.400;7.608;2022-07-22T03:22:35;101952.91;;;16.47;75.29
73267;BME280;61495;53.400;7.608;2022-07-22T03:25:02;101945.25;;;16.44;76.19
73267;BME280;61495;53.400;7.608;2022-07-22T03:27:28;101936.31;;;16.37;75.75
73267;BME280;61495;53.400;7.608;2022-07-22T03:29:53;101928.66;;;16.34;75.66
73267;BME280;61495;53.400;7.608;2022-07-22T03:32:18;101960.00;;;16.48;74.81
73267;BME280;61495;53.400;7.608;2022-07-22T03:34:44;101947.78;;;16.39;74.91
73267;BME280;61495;53.400;7.608;2022-07-22T03:37:09;101941.13;;;16.35;74.43
73267;BME280;61495;53.400;7.608;2022-07-22T03:39:35;101964.78;;;16.46;74.10
73267;BME280;61495;53.400;7.608;2022-07-22T03:42:01;101950.25;;;16.40;73.52
73267;BME280;61495;53.400;7.608;2022-07-22T03:44:26;101952.97;;;16.34;73.47
73267;BME280;61495;53.400;7.608;2022-07-22T03:46:51;101955.25;;;16.37;74.11
73267;BME280;61495;53.400;7.608;2022-07-22T03:49:17;101939.72;;;16.26;73.44
73267;BME280;61495;53.400;7.608;2022-07-22T03:51:42;101961.72;;;16.36;73.26
73267;BME280;61495;53.400;7.608;2022-07-22T03:54:08;101950.53;;;16.26;73.46
73267;BME280;61495;53.400;7.608;2022-07-22T03:56:33;101968.19;;;16.35;73.32
73267;BME280;61495;53.400;7.608;2022-07-22T03:58:59;101971.28;;;16.38;72.78
73267;BME280;61495;53.400;7.608;2022-07-22T04:01:24;101976.91;;;16.37;73.84
73267;BME280;61495;53.400;7.608;2022-07-22T04:03:49;101961.53;;;16.31;73.00
73267;BME280;61495;53.400;7.608;2022-07-22T04:06:16;101974.44;;;16.35;73.46
73267;BME280;61495;53.400;7.608;2022-07-22T04:08:41;101975.69;;;16.33;73.12
73267;BME280;61495;53.400;7.608;2022-07-22T04:11:07;101958.47;;;16.27;72.91
73267;BME280;61495;53.400;7.608;2022-07-22T04:13:32;101971.91;;;16.34;73.18
73267;BME280;61495;53.400;7.608;2022-07-22T04:15:58;101953.09;;;16.21;72.55
73267;BME280;61495;53.400;7.608;2022-07-22T04:18:23;101969.47;;;16.26;72.74
73267;BME280;61495;53.400;7.608;2022-07-22T04:20:49;101956.81;;;16.20;72.38
73267;BME280;61495;53.400;7.608;2022-07-22T04:23:14;101950.19;;;16.16;72.19
73267;BME280;61495;53.400;7.608;2022-07-22T04:25:40;101968.25;;;16.22;72.68
73267;BME280;61495;53.400;7.608;2022-07-22T04:28:05;101958.69;;;16.19;72.56
73267;BME280;61495;53.400;7.608;2022-07-22T04:30:31;101969.47;;;16.26;72.42
73267;BME280;61495;53.400;7.608;2022-07-22T04:32:56;101980.28;;;16.26;72.57
73267;BME280;61495;53.400;7.608;2022-07-22T04:35:23;101977.00;;;16.24;73.27
73267;BME280;61495;53.400;7.608;2022-07-22T04:37:48;101977.81;;;16.24;72.51
73267;BME280;61495;53.400;7.608;2022-07-22T04:40:14;101973.63;;;16.28;72.59
73267;BME280;61495;53.400;7.608;2022-07-22T04:42:39;101963.91;;;16.21;73.20
73267;BME280;61495;53.400;7.608;2022-07-22T04:45:05;101955.38;;;16.17;72.78
73267;BME280;61495;53.400;7.608;2022-07-22T04:47:30;101950.81;;;16.18;73.32
73267;BME280;61495;53.400;7.608;2022-07-22T04:49:56;101948.94;;;16.18;72.54
73267;BME280;61495;53.400;7.608;2022-07-22T04:52:21;101955.34;;;16.24;72.31
73267;BME280;61495;53.400;7.608;2022-07-22T04:54:46;101974.19;;;16.37;72.39
73267;BME280;61495;53.400;7.608;2022-07-22T04:57:12;101964.03;;;16.32;72.58
73267;BME280;61495;53.400;7.608;2022-07-22T04:59:37;101949.94;;;16.24;72.00
73267;BME280;61495;53.400;7.608;2022-07-22T05:02:03;101978.56;;;16.38;72.27
73267;BME280;61495;53.400;7.608;2022-07-22T05:04:28;101979.81;;;16.42;72.13
73267;BME280;61495;53.400;7.608;2022-07-22T05:06:54;101964.88;;;16.33;71.71
73267;BME280;61495;53.400;7.608;2022-07-22T05:09:19;101949.72;;;16.25;71.99
73267;BME280;61495;53.400;7.608;2022-07-22T05:11:45;101971.06;;;16.40;71.87
73267;BME280;61495;53.400;7.608;2022-07-22T05:14:10;101958.63;;;16.32;71.31
73267;BME280;61495;53.400;7.608;2022-07-22T05:16:36;101983.28;;;16.49;71.56
73267;BME280;61495;53.400;7.608;2022-07-22T05:19:03;101975.19;;;16.42;71.82
73267;BME280;61495;53.400;7.608;2022-07-22T05:21:29;101965.22;;;16.43;71.53
73267;BME280;61495;53.400;7.608;2022-07-22T05:24:05;101956.09;;;16.37;72.16
73267;BME280;61495;53.400;7.608;2022-07-22T05:26:31;101969.59;;;16.44;71.58
73267;BME280;61495;53.400;7.608;2022-07-22T05:28:58;101963.13;;;16.45;71.68
73267;BME280;61495;53.400;7.608;2022-07-22T05:31:24;101976.19;;;16.54;71.69
73267;BME280;61495;53.400;7.608;2022-07-22T05:33:49;101969.13;;;16.53;72.31
73267;BME280;61495;53.400;7.608;2022-07-22T05:36:15;101934.44;;;16.37;71.79
73267;BME280;61495;53.400;7.608;2022-07-22T05:38:40;101966.38;;;16.60;71.41
73267;BME280;61495;53.400;7.608;2022-07-22T05:41:05;101961.84;;;16.54;72.04
73267;BME280;61495;53.400;7.608;2022-07-22T05:43:31;101950.59;;;16.50;72.01
73267;BME280;61495;53.400;7.608;2022-07-22T05:45:56;101945.19;;;16.50;71.83
73267;BME280;61495;53.400;7.608;2022-07-22T05:48:22;101967.59;;;16.64;71.55
73267;BME280;61495;53.400;7.608;2022-07-22T05:50:47;101975.44;;;16.72;71.58
73267;BME280;61495;53.400;7.608;2022-07-22T05:53:13;101976.28;;;16.73;71.87
73267;BME280;61495;53.400;7.608;2022-07-22T05:55:38;101984.34;;;16.79;71.92
73267;BME280;61495;53.400;7.608;2022-07-22T05:58:04;101963.41;;;16.68;72.50
73267;BME280;61495;53.400;7.608;2022-07-22T06:00:29;101985.34;;;16.85;71.98
73267;BME280;61495;53.400;7.608;2022-07-22T06:02:55;101983.25;;;16.87;71.43
73267;BME280;61495;53.400;7.608;2022-07-22T06:05:20;101975.81;;;16.82;72.07
73267;BME280;61495;53.400;7.608;2022-07-22T06:07:46;101985.16;;;16.86;71.97
73267;BME280;61495;53.400;7.608;2022-07-22T06:10:11;101965.41;;;16.79;72.01
73267;BME280;61495;53.400;7.608;2022-07-22T06:12:37;101982.38;;;16.93;72.05
73267;BME280;61495;53.400;7.608;2022-07-22T06:15:03;101969.66;;;16.93;71.51
73267;BME280;61495;53.400;7.608;2022-07-22T06:17:28;101985.66;;;17.01;71.99
73267;BME280;61495;53.400;7.608;2022-07-22T06:19:54;101976.06;;;16.99;71.62
73267;BME280;61495;53.400;7.608;2022-07-22T06:22:19;101969.91;;;16.92;72.07
73267;BME280;61495;53.400;7.608;2022-07-22T06:24:45;102005.53;;;17.13;71.49
73267;BME280;61495;53.400;7.608;2022-07-22T06:27:10;101973.34;;;16.99;71.35
73267;BME280;61495;53.400;7.608;2022-07-22T06:29:36;101965.88;;;17.01;71.35
73267;BME280;61495;53.400;7.608;2022-07-22T06:32:01;102012.50;;;17.28;71.53
73267;BME280;61495;53.400;7.608;2022-07-22T06:34:27;102008.38;;;17.25;71.21
73267;BME280;61495;53.400;7.608;2022-07-22T06:36:52;102004.63;;;17.19;71.30
73267;BME280;61495;53.400;7.608;2022-07-22T06:39:18;102012.13;;;17.24;70.70
73267;BME280;61495;53.400;7.608;2022-07-22T06:41:43;101998.78;;;17.22;70.54
73267;BME280;61495;53.400;7.608;2022-07-22T06:44:09;101992.31;;;17.23;70.00
73267;BME280;61495;53.400;7.608;2022-07-22T06:46:34;101997.09;;;17.28;70.35
73267;BME280;61495;53.400;7.608;2022-07-22T06:49:00;101973.84;;;17.14;70.14
73267;BME280;61495;53.400;7.608;2022-07-22T06:51:25;102003.63;;;17.39;70.23
73267;BME280;61495;53.400;7.608;2022-07-22T06:53:50;102005.75;;;17.37;70.15
73267;BME280;61495;53.400;7.608;2022-07-22T06:56:16;101991.00;;;17.33;70.13
73267;BME280;61495;53.400;7.608;2022-07-22T06:58:41;102020.22;;;17.49;69.57
73267;BME280;61495;53.400;7.608;2022-07-22T07:01:06;102003.78;;;17.44;69.52
73267;BME280;61495;53.400;7.608;2022-07-22T07:03:32;102005.59;;;17.50;69.12
73267;BME280;61495;53.400;7.608;2022-07-22T07:05:57;101988.16;;;17.46;69.07
73267;BME280;61495;53.400;7.608;2022-07-22T07:08:23;102010.94;;;17.63;68.77
73267;BME280;61495;53.400;7.608;2022-07-22T07:10:48;101996.16;;;17.59;68.99
73267;BME280;61495;53.400;7.608;2022-07-22T07:13:14;102011.22;;;17.73;68.79
73267;BME280;61495;53.400;7.608;2022-07-22T07:15:39;101980.06;;;17.64;68.63
73267;BME280;61495;53.400;7.608;2022-07-22T07:18:04;101996.19;;;17.77;68.69
73267;BME280;61495;53.400;7.608;2022-07-22T07:20:30;102008.38;;;17.86;68.75
73267;BME280;61495;53.400;7.608;2022-07-22T07:22:55;101991.06;;;17.87;68.19
73267;BME280;61495;53.400;7.608;2022-07-22T07:25:24;102002.66;;;17.94;68.48
73267;BME280;61495;53.400;7.608;2022-07-22T07:27:51;101975.69;;;17.81;68.49
73267;BME280;61495;53.400;7.608;2022-07-22T07:30:16;102013.34;;;18.07;68.10
73267;BME280;61495;53.400;7.608;2022-07-22T07:32:41;102001.28;;;18.03;67.81
73267;BME280;61495;53.400;7.608;2022-07-22T07:35:10;101977.84;;;17.91;67.60
73267;BME280;61495;53.400;7.608;2022-07-22T07:37:35;101997.91;;;18.08;67.73
73267;BME280;61495;53.400;7.608;2022-07-22T07:40:01;102010.31;;;18.15;67.53
73267;BME280;61495;53.400;7.608;2022-07-22T07:42:27;101988.94;;;18.07;67.43
73267;BME280;61495;53.400;7.608;2022-07-22T07:44:52;101997.81;;;18.14;67.46
73267;BME280;61495;53.400;7.608;2022-07-22T07:47:18;101982.47;;;18.08;67.49
73267;BME280;61495;53.400;7.608;2022-07-22T07:49:46;102003.06;;;18.27;66.92
73267;BME280;61495;53.400;7.608;2022-07-22T07:52:13;101995.25;;;18.19;67.01
73267;BME280;61495;53.400;7.608;2022-07-22T07:54:42;101992.66;;;18.24;66.75
73267;BME280;61495;53.400;7.608;2022-07-22T07:57:09;102004.13;;;18.26;66.33
73267;BME280;61495;53.400;7.608;2022-07-22T07:59:38;101994.09;;;18.27;66.66
73267;BME280;61495;53.400;7.608;2022-07-22T08:02:04;102010.41;;;18.39;66.40
73267;BME280;61495;53.400;7.608;2022-07-22T08:04:31;102021.59;;;18.49;66.88
73267;BME280;61495;53.400;7.608;2022-07-22T08:06:56;102009.03;;;18.48;66.79
73267;BME280;61495;53.400;7.608;2022-07-22T08:09:23;102011.13;;;18.52;66.32
73267;BME280;61495;53.400;7.608;2022-07-22T08:11:48;102018.09;;;18.60;66.14
73267;BME280;61495;53.400;7.608;2022-07-22T08:14:14;102000.63;;;18.56;66.24
73267;BME280;61495;53.400;7.608;2022-07-22T08:16:40;101990.13;;;18.59;66.10
73267;BME280;61495;53.400;7.608;2022-07-22T08:19:06;102013.66;;;18.77;65.83
73267;BME280;61495;53.400;7.608;2022-07-22T08:21:32;102000.06;;;18.77;65.34
73267;BME280;61495;53.400;7.608;2022-07-22T08:23:58;101992.84;;;18.71;65.33
73267;BME280;61495;53.400;7.608;2022-07-22T08:26:24;102006.38;;;18.89;65.37
73267;BME280;61495;53.400;7.608;2022-07-22T08:28:50;102023.28;;;19.03;65.37
73267;BME280;61495;53.400;7.608;2022-07-22T08:31:16;101999.28;;;18.88;65.00
73267;BME280;61495;53.400;7.608;2022-07-22T08:33:42;102007.81;;;19.03;65.02
73267;BME280;61495;53.400;7.608;2022-07-22T08:36:08;102001.56;;;19.03;65.31
73267;BME280;61495;53.400;7.608;2022-07-22T08:38:35;102022.97;;;19.22;64.69
73267;BME280;61495;53.400;7.608;2022-07-22T08:41:10;102022.97;;;19.34;64.59
73267;BME280;61495;53.400;7.608;2022-07-22T08:43:38;102021.06;;;19.34;64.27
73267;BME280;61495;53.400;7.608;2022-07-22T08:46:08;102026.03;;;19.37;64.27
73267;BME280;61495;53.400;7.608;2022-07-22T08:48:38;102006.91;;;19.32;64.25
73267;BME280;61495;53.400;7.608;2022-07-22T08:51:04;102010.34;;;19.39;63.74
73267;BME280;61495;53.400;7.608;2022-07-22T08:53:30;102023.72;;;19.53;63.88
73267;BME280;61495;53.400;7.608;2022-07-22T08:55:56;102023.59;;;19.59;63.89
73267;BME280;61495;53.400;7.608;2022-07-22T08:58:27;102024.44;;;19.60;63.54
73267;BME280;61495;53.400;7.608;2022-07-22T09:01:14;102012.47;;;19.61;63.46
73267;BME280;61495;53.400;7.608;2022-07-22T09:06:15;102015.78;;;19.74;63.38
73267;BME280;61495;53.400;7.608;2022-07-22T09:08:58;102006.81;;;19.62;63.31
73267;BME280;61495;53.400;7.608;2022-07-22T09:11:26;102025.72;;;19.80;63.71
73267;BME280;61495;53.400;7.608;2022-07-22T09:13:54;102039.28;;;19.92;63.13
73267;BME280;61495;53.400;7.608;2022-07-22T09:19:03;102017.88;;;19.84;62.84
73267;BME280;61495;53.400;7.608;2022-07-22T09:21:29;102042.69;;;19.99;62.64
73267;BME280;61495;53.400;7.608;2022-07-22T09:23:55;102039.97;;;19.99;62.37
73267;BME280;61495;53.400;7.608;2022-07-22T09:26:31;102034.06;;;20.02;62.07
73267;BME280;61495;53.400;7.608;2022-07-22T09:29:00;102037.38;;;20.04;62.38
73267;BME280;61495;53.400;7.608;2022-07-22T09:31:33;102044.59;;;20.10;62.34
73267;BME280;61495;53.400;7.608;2022-07-22T09:34:00;102041.25;;;20.08;62.55
73267;BME280;61495;53.400;7.608;2022-07-22T09:36:26;102038.88;;;20.12;62.68
73267;BME280;61495;53.400;7.608;2022-07-22T09:38:52;102038.66;;;20.13;62.80
73267;BME280;61495;53.400;7.608;2022-07-22T09:41:18;102025.19;;;20.07;62.23
73267;BME280;61495;53.400;7.608;2022-07-22T09:43:44;102035.69;;;20.26;62.60
73267;BME280;61495;53.400;7.608;2022-07-22T09:46:09;102049.50;;;20.36;62.44
73267;BME280;61495;53.400;7.608;2022-07-22T09:48:36;102045.69;;;20.37;61.88
73267;BME280;61495;53.400;7.608;2022-07-22T09:51:02;102051.75;;;20.39;61.92
73267;BME280;61495;53.400;7.608;2022-07-22T09:53:29;102036.38;;;20.33;61.30
73267;BME280;61495;53.400;7.608;2022-07-22T09:56:02;102041.34;;;20.36;61.68
73267;BME280;61495;53.400;7.608;2022-07-22T09:58:28;102043.44;;;20.34;61.49
73267;BME280;61495;53.400;7.608;2022-07-22T10:00:55;102024.78;;;20.26;61.41
73267;BME280;61495;53.400;7.608;2022-07-22T10:03:31;102048.59;;;20.31;61.73
73267;BME280;61495;53.400;7.608;2022-07-22T10:05:57;102051.75;;;20.39;61.87
73267;BME280;61495;53.400;7.608;2022-07-22T10:08:24;102053.16;;;20.42;61.71
73267;BME280;61495;53.400;7.608;2022-07-22T10:10:50;102034.09;;;20.42;61.90
73267;BME280;61495;53.400;7.608;2022-07-22T10:13:17;102056.78;;;20.47;61.78
73267;BME280;61495;53.400;7.608;2022-07-22T10:15:44;102053.44;;;20.57;61.63
73267;BME280;61495;53.400;7.608;2022-07-22T10:18:16;102056.59;;;20.66;60.98
73267;BME280;61495;53.400;7.608;2022-07-22T10:20:42;102034.81;;;20.66;61.13
73267;BME280;61495;53.400;7.608;2022-07-22T10:23:09;102005.53;;;20.44;60.30
73267;BME280;61495;53.400;7.608;2022-07-22T10:25:56;102063.19;;;20.70;59.89
73267;BME280;61495;53.400;7.608;2022-07-22T10:28:29;102062.53;;;20.63;59.00
73267;BME280;61495;53.400;7.608;2022-07-22T10:31:23;102068.91;;;20.68;58.67
73267;BME280;61495;53.400;7.608;2022-07-22T10:33:52;102073.88;;;20.71;59.94
73267;BME280;61495;53.400;7.608;2022-07-22T10:36:38;102058.28;;;20.67;60.11
73267;BME280;61495;53.400;7.608;2022-07-22T10:39:12;102068.84;;;20.80;60.34
73267;BME280;61495;53.400;7.608;2022-07-22T10:41:43;102064.94;;;20.76;60.23
73267;BME280;61495;53.400;7.608;2022-07-22T10:44:10;102049.75;;;20.63;60.11
73267;BME280;61495;53.400;7.608;2022-07-22T10:46:55;102065.34;;;20.68;59.60
73267;BME280;61495;53.400;7.608;2022-07-22T10:49:24;102051.31;;;20.76;60.15
73267;BME280;61495;53.400;7.608;2022-07-22T10:52:10;102045.88;;;20.76;60.21
73267;BME280;61495;53.400;7.608;2022-07-22T10:55:19;102066.13;;;20.80;59.67
73267;BME280;61495;53.400;7.608;2022-07-22T10:57:46;102055.31;;;20.85;59.20
73267;BME280;61495;53.400;7.608;2022-07-22T11:00:12;102047.75;;;20.87;58.44
73267;BME280;61495;53.400;7.608;2022-07-22T11:02:38;102026.00;;;20.75;58.21
73267;BME280;61495;53.400;7.608;2022-07-22T11:05:04;102037.91;;;20.86;58.75
73267;BME280;61495;53.400;7.608;2022-07-22T11:07:29;102039.66;;;20.92;58.46
73267;BME280;61495;53.400;7.608;2022-07-22T11:10:11;102039.34;;;21.05;58.23
73267;BME280;61495;53.400;7.608;2022-07-22T11:12:37;102034.91;;;21.16;59.01
73267;BME280;61495;53.400;7.608;2022-07-22T11:15:05;102019.13;;;21.18;58.51
73267;BME280;61495;53.400;7.608;2022-07-22T11:17:32;102014.06;;;21.26;58.91
73267;BME280;61495;53.400;7.608;2022-07-22T11:20:06;102030.50;;;21.48;58.60
73267;BME280;61495;53.400;7.608;2022-07-22T11:22:32;102031.06;;;21.50;57.71
73267;BME280;61495;53.400;7.608;2022-07-22T11:25:00;102034.22;;;21.58;56.80
73267;BME280;61495;53.400;7.608;2022-07-22T11:27:26;102033.34;;;21.75;57.78
73267;BME280;61495;53.400;7.608;2022-07-22T11:29:53;102029.66;;;21.86;57.48
73267;BME280;61495;53.400;7.608;2022-07-22T11:32:22;102017.34;;;22.00;58.26
73267;BME280;61495;53.400;7.608;2022-07-22T11:34:48;102018.34;;;22.15;57.47
73267;BME280;61495;53.400;7.608;2022-07-22T11:37:16;102012.59;;;22.12;56.95
73267;BME280;61495;53.400;7.608;2022-07-22T11:39:42;102015.47;;;22.27;56.75
73267;BME280;61495;53.400;7.608;2022-07-22T11:42:09;102017.78;;;22.35;56.63
73267;BME280;61495;53.400;7.608;2022-07-22T11:44:36;102004.16;;;22.40;56.57
73267;BME280;61495;53.400;7.608;2022-07-22T11:47:03;102020.44;;;22.57;55.77
73267;BME280;61495;53.400;7.608;2022-07-22T11:49:32;102005.34;;;22.49;54.83
73267;BME280;61495;53.400;7.608;2022-07-22T11:52:03;102010.16;;;22.64;55.08
73267;BME280;61495;53.400;7.608;2022-07-22T11:54:29;101988.25;;;22.59;55.53
73267;BME280;61495;53.400;7.608;2022-07-22T11:56:55;101993.06;;;22.74;56.44
73267;BME280;61495;53.400;7.608;2022-07-22T11:59:21;101991.06;;;22.96;56.10
73267;BME280;61495;53.400;7.608;2022-07-22T12:02:20;102013.34;;;23.09;55.54
73267;BME280;61495;53.400;7.608;2022-07-22T12:04:54;101951.53;;;22.72;54.50
73267;BME280;61495;53.400;7.608;2022-07-22T12:07:20;102014.16;;;23.10;54.65
73267;BME280;61495;53.400;7.608;2022-07-22T12:09:45;102014.84;;;23.27;54.48
73267;BME280;61495;53.400;7.608;2022-07-22T12:12:11;102008.91;;;23.40;54.19
73267;BME280;61495;53.400;7.608;2022-07-22T12:14:44;102009.63;;;23.62;55.27
73267;BME280;61495;53.400;7.608;2022-07-22T12:17:10;102011.06;;;23.75;55.21
73267;BME280;61495;53.400;7.608;2022-07-22T12:19:37;102021.81;;;23.92;54.41
73267;BME280;61495;53.400;7.608;2022-07-22T12:22:09;102018.84;;;23.98;54.03
73267;BME280;61495;53.400;7.608;2022-07-22T12:24:43;102012.53;;;24.03;53.56
73267;BME280;61495;53.400;7.608;2022-07-22T12:27:09;102026.34;;;24.18;53.60
73267;BME280;61495;53.400;7.608;2022-07-22T12:32:03;102008.53;;;24.20;52.61
73267;BME280;61495;53.400;7.608;2022-07-22T12:34:43;102017.66;;;24.46;52.80
73267;BME280;61495;53.400;7.608;2022-07-22T12:37:21;102011.94;;;24.53;52.67
73267;BME280;61495;53.400;7.608;2022-07-22T12:42:46;101994.88;;;24.36;50.46
73267;BME280;61495;53.400;7.608;2022-07-22T12:45:23;102002.53;;;24.23;51.34
73267;BME280;61495;53.400;7.608;2022-07-22T12:47:56;102017.88;;;24.29;50.96
73267;BME280;61495;53.400;7.608;2022-07-22T12:55:35;101997.25;;;24.07;51.91
73267;BME280;61495;53.400;7.608;2022-07-22T12:58:02;101998.84;;;23.98;51.04
73267;BME280;61495;53.400;7.608;2022-07-22T13:00:30;102015.09;;;24.14;52.36
73267;BME280;61495;53.400;7.608;2022-07-22T13:02:56;102002.97;;;24.00;52.61
73267;BME280;61495;53.400;7.608;2022-07-22T13:05:23;102011.19;;;24.05;52.66